National Weather Service Raw Text Product

Displaying AFOS PIL: TAFALO Received: 2018-02-09 09:00 UTC


178 
FTUS43 KDMX 090900 AAA
TAFALO
TAF AMD
KALO 090900Z 0909/1006 03012G18KT 6SM -SN SCT007 OVC035
      TEMPO 0909/0911 2SM -SN OVC006
     FM091100 02012G18KT P6SM OVC023
     FM091600 01010G16KT P6SM SCT150
     FM100000 35007KT P6SM BKN150=